sensor_id;sensor_type;location;lat;lon;timestamp;P1;durP1;ratioP1;P2;durP2;ratioP2
16099;SDS011;8154;50.830;12.082;2022-08-11T00:02:25;2.63;;;2.25;;
16099;SDS011;8154;50.830;12.082;2022-08-11T00:05:21;2.67;;;2.47;;
16099;SDS011;8154;50.830;12.082;2022-08-11T00:08:06;2.90;;;2.60;;
16099;SDS011;8154;50.830;12.082;2022-08-11T00:10:52;3.25;;;2.60;;
16099;SDS011;8154;50.830;12.082;2022-08-11T00:13:41;3.53;;;2.60;;
16099;SDS011;8154;50.830;12.082;2022-08-11T00:16:29;2.72;;;2.53;;
16099;SDS011;8154;50.830;12.082;2022-08-11T00:19:19;2.83;;;2.50;;
16099;SDS011;8154;50.830;12.082;2022-08-11T00:22:05;2.55;;;2.35;;
16099;SDS011;8154;50.830;12.082;2022-08-11T00:24:52;2.47;;;2.28;;
16099;SDS011;8154;50.830;12.082;2022-08-11T00:27:37;3.53;;;2.40;;
16099;SDS011;8154;50.830;12.082;2022-08-11T00:30:23;3.40;;;2.67;;
16099;SDS011;8154;50.830;12.082;2022-08-11T00:33:07;2.72;;;2.53;;
16099;SDS011;8154;50.830;12.082;2022-08-11T00:35:55;4.35;;;2.60;;
16099;SDS011;8154;50.830;12.082;2022-08-11T00:38:42;3.53;;;2.67;;
16099;SDS011;8154;50.830;12.082;2022-08-11T00:44:31;3.50;;;2.60;;
16099;SDS011;8154;50.830;12.082;2022-08-11T00:47:42;3.20;;;2.90;;
16099;SDS011;8154;50.830;12.082;2022-08-11T00:53:25;3.03;;;2.67;;
16099;SDS011;8154;50.830;12.082;2022-08-11T01:00:00;2.60;;;2.40;;
16099;SDS011;8154;50.830;12.082;2022-08-11T01:15:44;3.50;;;2.70;;
16099;SDS011;8154;50.830;12.082;2022-08-11T01:19:08;2.97;;;2.70;;
16099;SDS011;8154;50.830;12.082;2022-08-11T01:22:31;3.50;;;2.60;;
16099;SDS011;8154;50.830;12.082;2022-08-11T01:46:55;3.00;;;2.70;;
16099;SDS011;8154;50.830;12.082;2022-08-11T01:50:00;3.50;;;2.80;;
16099;SDS011;8154;50.830;12.082;2022-08-11T02:11:30;4.90;;;2.60;;
16099;SDS011;8154;50.830;12.082;2022-08-11T02:17:20;3.30;;;2.60;;
16099;SDS011;8154;50.830;12.082;2022-08-11T02:20:22;3.25;;;2.53;;
16099;SDS011;8154;50.830;12.082;2022-08-11T02:23:33;3.00;;;2.70;;
16099;SDS011;8154;50.830;12.082;2022-08-11T02:38:50;3.10;;;2.80;;
16099;SDS011;8154;50.830;12.082;2022-08-11T02:41:46;2.70;;;2.50;;
16099;SDS011;8154;50.830;12.082;2022-08-11T02:54:10;3.25;;;2.58;;
16099;SDS011;8154;50.830;12.082;2022-08-11T03:00:20;3.50;;;3.00;;
16099;SDS011;8154;50.830;12.082;2022-08-11T03:03:16;2.70;;;2.50;;
16099;SDS011;8154;50.830;12.082;2022-08-11T03:09:26;3.00;;;2.70;;
16099;SDS011;8154;50.830;12.082;2022-08-11T03:12:29;3.00;;;2.70;;
16099;SDS011;8154;50.830;12.082;2022-08-11T03:15:45;2.85;;;2.65;;
16099;SDS011;8154;50.830;12.082;2022-08-11T03:19:10;3.00;;;2.67;;
16099;SDS011;8154;50.830;12.082;2022-08-11T03:22:23;2.80;;;2.60;;
16099;SDS011;8154;50.830;12.082;2022-08-11T03:25:26;3.17;;;2.70;;
16099;SDS011;8154;50.830;12.082;2022-08-11T03:28:25;2.97;;;2.65;;
16099;SDS011;8154;50.830;12.082;2022-08-11T03:34:06;2.92;;;2.72;;
16099;SDS011;8154;50.830;12.082;2022-08-11T03:43:16;3.15;;;2.80;;
16099;SDS011;8154;50.830;12.082;2022-08-11T04:14:44;4.47;;;2.60;;
16099;SDS011;8154;50.830;12.082;2022-08-11T04:27:06;3.78;;;2.92;;
16099;SDS011;8154;50.830;12.082;2022-08-11T04:30:13;6.13;;;2.70;;
16099;SDS011;8154;50.830;12.082;2022-08-11T04:36:18;3.08;;;2.60;;
16099;SDS011;8154;50.830;12.082;2022-08-11T05:05:35;3.47;;;2.90;;
16099;SDS011;8154;50.830;12.082;2022-08-11T05:15:13;4.55;;;2.90;;
16099;SDS011;8154;50.830;12.082;2022-08-11T05:18:22;4.72;;;3.10;;
16099;SDS011;8154;50.830;12.082;2022-08-11T05:21:27;4.68;;;3.08;;
16099;SDS011;8154;50.830;12.082;2022-08-11T05:24:43;4.18;;;3.20;;
16099;SDS011;8154;50.830;12.082;2022-08-11T05:31:07;3.25;;;2.95;;
16099;SDS011;8154;50.830;12.082;2022-08-11T05:34:19;4.35;;;3.22;;
16099;SDS011;8154;50.830;12.082;2022-08-11T05:37:32;4.82;;;3.33;;
16099;SDS011;8154;50.830;12.082;2022-08-11T05:40:21;4.75;;;3.35;;
16099;SDS011;8154;50.830;12.082;2022-08-11T05:43:26;4.50;;;3.25;;
16099;SDS011;8154;50.830;12.082;2022-08-11T05:46:29;3.78;;;3.40;;
16099;SDS011;8154;50.830;12.082;2022-08-11T05:49:41;3.50;;;3.20;;
16099;SDS011;8154;50.830;12.082;2022-08-11T05:52:51;4.18;;;3.10;;
16099;SDS011;8154;50.830;12.082;2022-08-11T05:55:55;4.55;;;3.45;;
16099;SDS011;8154;50.830;12.082;2022-08-11T05:59:00;3.85;;;3.25;;
16099;SDS011;8154;50.830;12.082;2022-08-11T06:01:46;4.07;;;3.17;;
16099;SDS011;8154;50.830;12.082;2022-08-11T06:04:30;3.92;;;3.20;;
16099;SDS011;8154;50.830;12.082;2022-08-11T06:07:16;3.83;;;3.40;;
16099;SDS011;8154;50.830;12.082;2022-08-11T06:10:00;4.15;;;3.10;;
16099;SDS011;8154;50.830;12.082;2022-08-11T06:12:50;4.82;;;3.45;;
16099;SDS011;8154;50.830;12.082;2022-08-11T06:15:44;5.13;;;3.55;;
16099;SDS011;8154;50.830;12.082;2022-08-11T06:18:30;4.80;;;3.42;;
16099;SDS011;8154;50.830;12.082;2022-08-11T06:21:15;3.63;;;3.30;;
16099;SDS011;8154;50.830;12.082;2022-08-11T06:24:11;3.78;;;3.20;;
16099;SDS011;8154;50.830;12.082;2022-08-11T06:26:57;4.32;;;3.30;;
16099;SDS011;8154;50.830;12.082;2022-08-11T06:29:49;4.43;;;3.35;;
16099;SDS011;8154;50.830;12.082;2022-08-11T06:32:34;4.50;;;3.38;;
16099;SDS011;8154;50.830;12.082;2022-08-11T06:35:37;5.35;;;3.28;;
16099;SDS011;8154;50.830;12.082;2022-08-11T06:45:00;5.97;;;3.50;;
16099;SDS011;8154;50.830;12.082;2022-08-11T06:47:51;5.18;;;3.42;;
16099;SDS011;8154;50.830;12.082;2022-08-11T06:50:37;3.58;;;3.17;;
16099;SDS011;8154;50.830;12.082;2022-08-11T06:53:50;6.35;;;3.55;;
16099;SDS011;8154;50.830;12.082;2022-08-11T06:56:40;3.80;;;3.35;;
16099;SDS011;8154;50.830;12.082;2022-08-11T06:59:44;3.55;;;3.20;;
16099;SDS011;8154;50.830;12.082;2022-08-11T07:02:52;3.47;;;3.17;;
16099;SDS011;8154;50.830;12.082;2022-08-11T07:05:51;4.93;;;3.45;;
16099;SDS011;8154;50.830;12.082;2022-08-11T07:15:30;3.92;;;3.28;;
16099;SDS011;8154;50.830;12.082;2022-08-11T07:18:28;3.65;;;3.25;;
16099;SDS011;8154;50.830;12.082;2022-08-11T07:21:37;3.42;;;3.13;;
16099;SDS011;8154;50.830;12.082;2022-08-11T07:25:06;3.72;;;3.40;;
16099;SDS011;8154;50.830;12.082;2022-08-11T07:28:17;3.95;;;3.13;;
16099;SDS011;8154;50.830;12.082;2022-08-11T07:31:31;3.88;;;3.05;;
16099;SDS011;8154;50.830;12.082;2022-08-11T07:34:36;4.07;;;3.20;;
16099;SDS011;8154;50.830;12.082;2022-08-11T07:37:25;3.35;;;3.00;;
16099;SDS011;8154;50.830;12.082;2022-08-11T07:40:15;4.00;;;3.10;;
16099;SDS011;8154;50.830;12.082;2022-08-11T07:43:05;2.85;;;2.65;;
16099;SDS011;8154;50.830;12.082;2022-08-11T07:45:50;4.00;;;2.80;;
16099;SDS011;8154;50.830;12.082;2022-08-11T07:48:53;3.88;;;2.80;;
16099;SDS011;8154;50.830;12.082;2022-08-11T07:51:57;3.03;;;2.72;;
16099;SDS011;8154;50.830;12.082;2022-08-11T07:55:03;3.08;;;2.78;;
16099;SDS011;8154;50.830;12.082;2022-08-11T07:57:50;3.05;;;2.78;;
16099;SDS011;8154;50.830;12.082;2022-08-11T08:00:55;2.88;;;2.60;;
16099;SDS011;8154;50.830;12.082;2022-08-11T08:03:59;2.70;;;2.50;;
16099;SDS011;8154;50.830;12.082;2022-08-11T08:07:03;2.80;;;2.60;;
16099;SDS011;8154;50.830;12.082;2022-08-11T08:10:08;3.45;;;2.67;;
16099;SDS011;8154;50.830;12.082;2022-08-11T08:13:12;2.60;;;2.40;;
16099;SDS011;8154;50.830;12.082;2022-08-11T08:16:17;3.10;;;2.40;;
16099;SDS011;8154;50.830;12.082;2022-08-11T08:19:21;2.97;;;2.50;;
16099;SDS011;8154;50.830;12.082;2022-08-11T08:22:06;2.70;;;2.50;;
16099;SDS011;8154;50.830;12.082;2022-08-11T08:24:51;2.70;;;2.50;;
16099;SDS011;8154;50.830;12.082;2022-08-11T08:27:36;3.25;;;2.30;;
16099;SDS011;8154;50.830;12.082;2022-08-11T08:30:21;3.22;;;2.58;;
16099;SDS011;8154;50.830;12.082;2022-08-11T08:33:28;2.70;;;2.30;;
16099;SDS011;8154;50.830;12.082;2022-08-11T08:36:14;2.38;;;2.17;;
16099;SDS011;8154;50.830;12.082;2022-08-11T08:39:00;2.35;;;2.17;;
16099;SDS011;8154;50.830;12.082;2022-08-11T08:41:44;3.33;;;2.30;;
16099;SDS011;8154;50.830;12.082;2022-08-11T08:44:29;2.67;;;2.28;;
16099;SDS011;8154;50.830;12.082;2022-08-11T08:47:18;2.60;;;2.20;;
16099;SDS011;8154;50.830;12.082;2022-08-11T08:50:07;2.40;;;2.20;;
16099;SDS011;8154;50.830;12.082;2022-08-11T08:52:59;2.63;;;2.30;;
16099;SDS011;8154;50.830;12.082;2022-08-11T08:55:48;2.80;;;2.30;;
16099;SDS011;8154;50.830;12.082;2022-08-11T08:58:35;2.60;;;2.40;;
16099;SDS011;8154;50.830;12.082;2022-08-11T09:01:21;2.40;;;2.20;;
16099;SDS011;8154;50.830;12.082;2022-08-11T09:04:08;4.55;;;2.50;;
16099;SDS011;8154;50.830;12.082;2022-08-11T09:06:58;3.80;;;2.22;;
16099;SDS011;8154;50.830;12.082;2022-08-11T09:09:46;3.42;;;2.00;;
16099;SDS011;8154;50.830;12.082;2022-08-11T09:12:33;2.30;;;2.10;;
16099;SDS011;8154;50.830;12.082;2022-08-11T09:15:20;2.33;;;2.03;;
16099;SDS011;8154;50.830;12.082;2022-08-11T09:18:06;3.35;;;2.15;;
16099;SDS011;8154;50.830;12.082;2022-08-11T09:20:53;2.40;;;2.20;;
16099;SDS011;8154;50.830;12.082;2022-08-11T09:23:38;2.20;;;2.00;;
16099;SDS011;8154;50.830;12.082;2022-08-11T09:26:41;5.35;;;2.10;;
16099;SDS011;8154;50.830;12.082;2022-08-11T09:29:42;2.40;;;2.20;;
16099;SDS011;8154;50.830;12.082;2022-08-11T09:32:27;2.78;;;2.22;;
16099;SDS011;8154;50.830;12.082;2022-08-11T09:35:14;2.28;;;2.00;;
16099;SDS011;8154;50.830;12.082;2022-08-11T09:38:00;3.55;;;2.10;;
16099;SDS011;8154;50.830;12.082;2022-08-11T09:41:09;2.78;;;2.10;;
16099;SDS011;8154;50.830;12.082;2022-08-11T09:43:56;2.95;;;1.80;;
16099;SDS011;8154;50.830;12.082;2022-08-11T09:47:00;2.20;;;2.00;;
16099;SDS011;8154;50.830;12.082;2022-08-11T09:49:46;2.30;;;2.05;;
16099;SDS011;8154;50.830;12.082;2022-08-11T09:52:34;2.20;;;2.00;;
16099;SDS011;8154;50.830;12.082;2022-08-11T09:55:21;3.53;;;2.00;;
16099;SDS011;8154;50.830;12.082;2022-08-11T09:58:06;2.50;;;1.98;;
16099;SDS011;8154;50.830;12.082;2022-08-11T10:00:56;2.72;;;2.10;;
16099;SDS011;8154;50.830;12.082;2022-08-11T10:03:45;2.20;;;2.00;;
16099;SDS011;8154;50.830;12.082;2022-08-11T10:06:30;2.42;;;2.10;;
16099;SDS011;8154;50.830;12.082;2022-08-11T10:12:36;3.28;;;1.95;;
16099;SDS011;8154;50.830;12.082;2022-08-11T10:15:25;2.50;;;2.10;;
16099;SDS011;8154;50.830;12.082;2022-08-11T10:18:17;3.78;;;1.90;;
16099;SDS011;8154;50.830;12.082;2022-08-11T10:24:20;2.53;;;2.08;;
16099;SDS011;8154;50.830;12.082;2022-08-11T10:27:24;2.35;;;2.10;;
16099;SDS011;8154;50.830;12.082;2022-08-11T10:30:09;3.60;;;2.03;;
16099;SDS011;8154;50.830;12.082;2022-08-11T10:33:13;3.95;;;2.10;;
16099;SDS011;8154;50.830;12.082;2022-08-11T10:36:20;2.45;;;2.25;;
16099;SDS011;8154;50.830;12.082;2022-08-11T10:39:05;2.75;;;2.05;;
16099;SDS011;8154;50.830;12.082;2022-08-11T10:41:49;3.53;;;2.17;;
16099;SDS011;8154;50.830;12.082;2022-08-11T10:44:54;4.38;;;2.10;;
16099;SDS011;8154;50.830;12.082;2022-08-11T10:47:44;4.38;;;2.30;;
16099;SDS011;8154;50.830;12.082;2022-08-11T10:50:28;2.38;;;2.00;;
16099;SDS011;8154;50.830;12.082;2022-08-11T10:53:33;2.67;;;2.10;;
16099;SDS011;8154;50.830;12.082;2022-08-11T10:56:37;2.30;;;2.10;;
16099;SDS011;8154;50.830;12.082;2022-08-11T10:59:40;3.05;;;1.80;;
16099;SDS011;8154;50.830;12.082;2022-08-11T11:02:26;2.92;;;1.90;;
16099;SDS011;8154;50.830;12.082;2022-08-11T11:08:14;2.63;;;1.90;;
16099;SDS011;8154;50.830;12.082;2022-08-11T11:11:20;2.85;;;1.98;;
16099;SDS011;8154;50.830;12.082;2022-08-11T11:14:28;4.13;;;1.90;;
16099;SDS011;8154;50.830;12.082;2022-08-11T11:17:36;2.72;;;1.92;;
16099;SDS011;8154;50.830;12.082;2022-08-11T11:23:42;2.22;;;2.03;;
16099;SDS011;8154;50.830;12.082;2022-08-11T11:26:51;2.00;;;1.90;;
16099;SDS011;8154;50.830;12.082;2022-08-11T11:29:43;2.72;;;2.10;;
16099;SDS011;8154;50.830;12.082;2022-08-11T11:32:48;6.32;;;2.30;;
16099;SDS011;8154;50.830;12.082;2022-08-11T11:38:43;2.58;;;2.28;;
16099;SDS011;8154;50.830;12.082;2022-08-11T11:41:28;3.65;;;2.10;;
16099;SDS011;8154;50.830;12.082;2022-08-11T11:44:13;2.35;;;1.98;;
16099;SDS011;8154;50.830;12.082;2022-08-11T11:46:58;3.65;;;1.85;;
16099;SDS011;8154;50.830;12.082;2022-08-11T11:49:43;2.78;;;2.20;;
16099;SDS011;8154;50.830;12.082;2022-08-11T11:52:28;2.92;;;1.90;;
16099;SDS011;8154;50.830;12.082;2022-08-11T11:55:13;2.10;;;1.80;;
16099;SDS011;8154;50.830;12.082;2022-08-11T11:57:59;2.00;;;1.90;;
16099;SDS011;8154;50.830;12.082;2022-08-11T12:01:03;2.20;;;1.90;;
16099;SDS011;8154;50.830;12.082;2022-08-11T12:04:03;2.25;;;1.98;;
16099;SDS011;8154;50.830;12.082;2022-08-11T12:06:51;2.40;;;2.00;;
16099;SDS011;8154;50.830;12.082;2022-08-11T12:09:56;3.30;;;1.98;;
16099;SDS011;8154;50.830;12.082;2022-08-11T12:12:41;2.42;;;1.85;;
16099;SDS011;8154;50.830;12.082;2022-08-11T12:15:49;1.90;;;1.73;;
16099;SDS011;8154;50.830;12.082;2022-08-11T12:18:35;3.08;;;2.00;;
16099;SDS011;8154;50.830;12.082;2022-08-11T12:21:20;2.38;;;1.98;;
16099;SDS011;8154;50.830;12.082;2022-08-11T12:24:07;2.30;;;2.08;;
16099;SDS011;8154;50.830;12.082;2022-08-11T12:27:12;2.60;;;2.08;;
16099;SDS011;8154;50.830;12.082;2022-08-11T12:30:04;2.15;;;1.90;;
16099;SDS011;8154;50.830;12.082;2022-08-11T12:32:51;3.10;;;1.98;;
16099;SDS011;8154;50.830;12.082;2022-08-11T12:35:36;2.05;;;1.95;;
16099;SDS011;8154;50.830;12.082;2022-08-11T12:38:21;2.05;;;1.85;;
16099;SDS011;8154;50.830;12.082;2022-08-11T12:41:06;3.13;;;2.03;;
16099;SDS011;8154;50.830;12.082;2022-08-11T12:44:10;2.70;;;2.00;;
16099;SDS011;8154;50.830;12.082;2022-08-11T12:47:15;4.05;;;2.03;;
16099;SDS011;8154;50.830;12.082;2022-08-11T12:50:01;2.40;;;1.95;;
16099;SDS011;8154;50.830;12.082;2022-08-11T12:53:05;3.08;;;1.88;;
16099;SDS011;8154;50.830;12.082;2022-08-11T12:55:54;2.03;;;1.80;;
16099;SDS011;8154;50.830;12.082;2022-08-11T12:59:01;3.35;;;2.20;;
16099;SDS011;8154;50.830;12.082;2022-08-11T13:02:05;2.55;;;2.08;;
16099;SDS011;8154;50.830;12.082;2022-08-11T13:05:11;2.70;;;1.88;;
16099;SDS011;8154;50.830;12.082;2022-08-11T13:07:57;1.85;;;1.75;;
16099;SDS011;8154;50.830;12.082;2022-08-11T13:10:43;2.15;;;1.90;;
16099;SDS011;8154;50.830;12.082;2022-08-11T13:13:48;2.42;;;2.10;;
16099;SDS011;8154;50.830;12.082;2022-08-11T13:16:36;3.40;;;2.00;;
16099;SDS011;8154;50.830;12.082;2022-08-11T13:19:41;3.33;;;1.98;;
16099;SDS011;8154;50.830;12.082;2022-08-11T13:22:27;2.40;;;2.10;;
16099;SDS011;8154;50.830;12.082;2022-08-11T13:25:13;2.58;;;1.77;;
16099;SDS011;8154;50.830;12.082;2022-08-11T13:28:00;3.13;;;2.03;;
16099;SDS011;8154;50.830;12.082;2022-08-11T13:30:45;2.88;;;2.13;;
16099;SDS011;8154;50.830;12.082;2022-08-11T13:33:50;2.50;;;1.98;;
16099;SDS011;8154;50.830;12.082;2022-08-11T13:36:35;2.15;;;1.92;;
16099;SDS011;8154;50.830;12.082;2022-08-11T13:39:24;2.08;;;1.88;;
16099;SDS011;8154;50.830;12.082;2022-08-11T13:42:10;2.58;;;1.80;;
16099;SDS011;8154;50.830;12.082;2022-08-11T13:44:54;2.13;;;1.92;;
16099;SDS011;8154;50.830;12.082;2022-08-11T13:47:41;3.35;;;2.10;;
16099;SDS011;8154;50.830;12.082;2022-08-11T13:50:26;3.63;;;1.92;;
16099;SDS011;8154;50.830;12.082;2022-08-11T13:53:31;2.10;;;1.90;;
16099;SDS011;8154;50.830;12.082;2022-08-11T13:56:17;4.32;;;1.98;;
16099;SDS011;8154;50.830;12.082;2022-08-11T13:59:08;2.65;;;1.90;;
16099;SDS011;8154;50.830;12.082;2022-08-11T14:01:55;2.75;;;2.17;;
16099;SDS011;8154;50.830;12.082;2022-08-11T14:07:34;3.92;;;2.00;;
16099;SDS011;8154;50.830;12.082;2022-08-11T14:10:29;4.60;;;2.15;;
16099;SDS011;8154;50.830;12.082;2022-08-11T14:13:15;2.40;;;2.15;;
16099;SDS011;8154;50.830;12.082;2022-08-11T14:16:21;3.17;;;2.10;;
16099;SDS011;8154;50.830;12.082;2022-08-11T14:19:20;4.60;;;2.00;;
16099;SDS011;8154;50.830;12.082;2022-08-11T14:22:07;2.50;;;2.10;;
16099;SDS011;8154;50.830;12.082;2022-08-11T14:24:55;2.88;;;1.90;;
16099;SDS011;8154;50.830;12.082;2022-08-11T14:27:42;2.47;;;2.20;;
16099;SDS011;8154;50.830;12.082;2022-08-11T14:30:28;3.10;;;2.05;;
16099;SDS011;8154;50.830;12.082;2022-08-11T14:33:31;2.25;;;2.03;;
16099;SDS011;8154;50.830;12.082;2022-08-11T14:36:16;2.30;;;2.10;;
16099;SDS011;8154;50.830;12.082;2022-08-11T14:39:06;3.80;;;2.10;;
16099;SDS011;8154;50.830;12.082;2022-08-11T14:41:56;2.78;;;2.25;;
16099;SDS011;8154;50.830;12.082;2022-08-11T14:45:08;2.40;;;2.20;;
16099;SDS011;8154;50.830;12.082;2022-08-11T14:48:15;3.70;;;2.03;;
16099;SDS011;8154;50.830;12.082;2022-08-11T14:50:59;2.40;;;2.20;;
16099;SDS011;8154;50.830;12.082;2022-08-11T14:53:44;4.78;;;2.17;;
16099;SDS011;8154;50.830;12.082;2022-08-11T14:56:29;2.97;;;2.10;;
16099;SDS011;8154;50.830;12.082;2022-08-11T14:59:19;2.75;;;2.00;;
16099;SDS011;8154;50.830;12.082;2022-08-11T15:02:05;3.05;;;2.08;;
16099;SDS011;8154;50.830;12.082;2022-08-11T15:05:08;3.33;;;2.20;;
16099;SDS011;8154;50.830;12.082;2022-08-11T15:07:53;2.30;;;2.10;;
16099;SDS011;8154;50.830;12.082;2022-08-11T15:10:39;3.45;;;2.20;;
16099;SDS011;8154;50.830;12.082;2022-08-11T15:13:24;2.70;;;2.30;;
16099;SDS011;8154;50.830;12.082;2022-08-11T15:16:08;3.17;;;2.10;;
16099;SDS011;8154;50.830;12.082;2022-08-11T15:19:11;2.85;;;2.08;;
16099;SDS011;8154;50.830;12.082;2022-08-11T15:21:57;2.90;;;2.28;;
16099;SDS011;8154;50.830;12.082;2022-08-11T15:25:00;2.67;;;2.20;;
16099;SDS011;8154;50.830;12.082;2022-08-11T15:27:46;2.88;;;2.22;;
16099;SDS011;8154;50.830;12.082;2022-08-11T15:30:53;2.45;;;2.10;;
16099;SDS011;8154;50.830;12.082;2022-08-11T15:34:00;3.08;;;2.30;;
16099;SDS011;8154;50.830;12.082;2022-08-11T15:37:07;2.05;;;1.90;;
16099;SDS011;8154;50.830;12.082;2022-08-11T15:43:30;3.53;;;2.35;;
16099;SDS011;8154;50.830;12.082;2022-08-11T15:46:55;7.82;;;2.45;;
16099;SDS011;8154;50.830;12.082;2022-08-11T15:50:01;2.22;;;2.00;;
16099;SDS011;8154;50.830;12.082;2022-08-11T15:56:10;4.28;;;2.13;;
16099;SDS011;8154;50.830;12.082;2022-08-11T15:58:56;3.03;;;2.30;;
16099;SDS011;8154;50.830;12.082;2022-08-11T16:02:03;2.45;;;2.25;;
16099;SDS011;8154;50.830;12.082;2022-08-11T16:05:09;4.72;;;2.10;;
16099;SDS011;8154;50.830;12.082;2022-08-11T16:07:56;5.53;;;2.40;;
16099;SDS011;8154;50.830;12.082;2022-08-11T16:10:43;2.10;;;1.90;;
16099;SDS011;8154;50.830;12.082;2022-08-11T16:13:27;3.05;;;2.00;;
16099;SDS011;8154;50.830;12.082;2022-08-11T16:16:13;3.55;;;2.10;;
16099;SDS011;8154;50.830;12.082;2022-08-11T16:18:59;3.88;;;2.20;;
16099;SDS011;8154;50.830;12.082;2022-08-11T16:21:48;2.20;;;2.00;;
16099;SDS011;8154;50.830;12.082;2022-08-11T16:24:36;3.22;;;2.00;;
16099;SDS011;8154;50.830;12.082;2022-08-11T16:27:26;3.08;;;2.00;;
16099;SDS011;8154;50.830;12.082;2022-08-11T16:30:16;2.00;;;1.80;;
16099;SDS011;8154;50.830;12.082;2022-08-11T16:33:01;2.15;;;1.90;;
16099;SDS011;8154;50.830;12.082;2022-08-11T16:35:47;1.80;;;1.70;;
16099;SDS011;8154;50.830;12.082;2022-08-11T16:38:52;2.20;;;2.00;;
16099;SDS011;8154;50.830;12.082;2022-08-11T16:41:39;2.05;;;1.90;;
16099;SDS011;8154;50.830;12.082;2022-08-11T16:44:45;2.10;;;1.90;;
16099;SDS011;8154;50.830;12.082;2022-08-11T16:47:47;2.75;;;1.98;;
16099;SDS011;8154;50.830;12.082;2022-08-11T16:50:33;2.55;;;1.88;;
16099;SDS011;8154;50.830;12.082;2022-08-11T16:53:19;3.08;;;1.92;;
16099;SDS011;8154;50.830;12.082;2022-08-11T16:56:03;3.08;;;2.00;;
16099;SDS011;8154;50.830;12.082;2022-08-11T16:58:51;2.45;;;1.90;;
16099;SDS011;8154;50.830;12.082;2022-08-11T17:05:19;2.10;;;1.83;;
16099;SDS011;8154;50.830;12.082;2022-08-11T17:08:29;2.10;;;1.90;;
16099;SDS011;8154;50.830;12.082;2022-08-11T17:11:41;2.08;;;1.88;;
16099;SDS011;8154;50.830;12.082;2022-08-11T17:14:48;1.88;;;1.77;;
16099;SDS011;8154;50.830;12.082;2022-08-11T17:17:37;5.10;;;2.05;;
16099;SDS011;8154;50.830;12.082;2022-08-11T17:20:22;3.70;;;1.80;;
16099;SDS011;8154;50.830;12.082;2022-08-11T17:23:07;2.05;;;1.95;;
16099;SDS011;8154;50.830;12.082;2022-08-11T17:26:10;1.80;;;1.70;;
16099;SDS011;8154;50.830;12.082;2022-08-11T17:28:56;2.22;;;1.63;;
16099;SDS011;8154;50.830;12.082;2022-08-11T17:31:43;2.58;;;2.00;;
16099;SDS011;8154;50.830;12.082;2022-08-11T17:34:48;3.13;;;1.77;;
16099;SDS011;8154;50.830;12.082;2022-08-11T17:37:55;2.28;;;1.77;;
16099;SDS011;8154;50.830;12.082;2022-08-11T17:40:54;3.15;;;1.70;;
16099;SDS011;8154;50.830;12.082;2022-08-11T17:43:59;2.20;;;1.70;;
16099;SDS011;8154;50.830;12.082;2022-08-11T17:47:04;2.85;;;1.77;;
16099;SDS011;8154;50.830;12.082;2022-08-11T17:50:09;3.05;;;1.70;;
16099;SDS011;8154;50.830;12.082;2022-08-11T17:52:54;1.88;;;1.60;;
16099;SDS011;8154;50.830;12.082;2022-08-11T17:56:03;2.55;;;1.70;;
16099;SDS011;8154;50.830;12.082;2022-08-11T17:59:07;2.88;;;1.70;;
16099;SDS011;8154;50.830;12.082;2022-08-11T18:02:11;1.70;;;1.60;;
16099;SDS011;8154;50.830;12.082;2022-08-11T18:05:17;1.83;;;1.65;;
16099;SDS011;8154;50.830;12.082;2022-08-11T18:08:04;1.70;;;1.60;;
16099;SDS011;8154;50.830;12.082;2022-08-11T18:11:10;2.47;;;1.60;;
16099;SDS011;8154;50.830;12.082;2022-08-11T18:14:14;2.38;;;1.60;;
16099;SDS011;8154;50.830;12.082;2022-08-11T18:17:18;1.80;;;1.70;;
16099;SDS011;8154;50.830;12.082;2022-08-11T18:20:22;1.75;;;1.65;;
16099;SDS011;8154;50.830;12.082;2022-08-11T18:23:26;3.83;;;1.60;;
16099;SDS011;8154;50.830;12.082;2022-08-11T18:26:29;1.80;;;1.70;;
16099;SDS011;8154;50.830;12.082;2022-08-11T18:29:33;3.42;;;1.48;;
16099;SDS011;8154;50.830;12.082;2022-08-11T18:32:41;1.60;;;1.50;;
16099;SDS011;8154;50.830;12.082;2022-08-11T18:35:43;2.65;;;1.60;;
16099;SDS011;8154;50.830;12.082;2022-08-11T18:38:52;3.45;;;1.65;;
16099;SDS011;8154;50.830;12.082;2022-08-11T18:41:59;2.67;;;1.50;;
16099;SDS011;8154;50.830;12.082;2022-08-11T18:45:09;1.70;;;1.60;;
16099;SDS011;8154;50.830;12.082;2022-08-11T18:48:16;3.80;;;1.70;;
16099;SDS011;8154;50.830;12.082;2022-08-11T18:51:26;1.80;;;1.50;;
16099;SDS011;8154;50.830;12.082;2022-08-11T18:54:30;1.52;;;1.42;;
16099;SDS011;8154;50.830;12.082;2022-08-11T18:57:35;3.65;;;1.60;;
16099;SDS011;8154;50.830;12.082;2022-08-11T19:00:40;2.03;;;1.60;;
16099;SDS011;8154;50.830;12.082;2022-08-11T19:03:46;4.50;;;1.50;;
16099;SDS011;8154;50.830;12.082;2022-08-11T19:06:53;2.15;;;1.63;;
16099;SDS011;8154;50.830;12.082;2022-08-11T19:09:59;1.50;;;1.40;;
16099;SDS011;8154;50.830;12.082;2022-08-11T19:13:05;1.40;;;1.30;;
16099;SDS011;8154;50.830;12.082;2022-08-11T19:16:11;1.52;;;1.30;;
16099;SDS011;8154;50.830;12.082;2022-08-11T19:19:14;1.52;;;1.42;;
16099;SDS011;8154;50.830;12.082;2022-08-11T19:22:19;1.50;;;1.40;;
16099;SDS011;8154;50.830;12.082;2022-08-11T19:25:24;1.50;;;1.40;;
16099;SDS011;8154;50.830;12.082;2022-08-11T19:28:29;1.42;;;1.33;;
16099;SDS011;8154;50.830;12.082;2022-08-11T19:31:35;2.03;;;1.35;;
16099;SDS011;8154;50.830;12.082;2022-08-11T19:34:39;1.50;;;1.40;;
16099;SDS011;8154;50.830;12.082;2022-08-11T19:37:43;1.55;;;1.27;;
16099;SDS011;8154;50.830;12.082;2022-08-11T19:40:47;1.35;;;1.20;;
16099;SDS011;8154;50.830;12.082;2022-08-11T19:43:51;1.30;;;1.20;;
16099;SDS011;8154;50.830;12.082;2022-08-11T19:46:55;1.63;;;1.40;;
16099;SDS011;8154;50.830;12.082;2022-08-11T19:50:00;2.08;;;1.40;;
16099;SDS011;8154;50.830;12.082;2022-08-11T19:53:06;2.05;;;1.40;;
16099;SDS011;8154;50.830;12.082;2022-08-11T19:56:09;1.75;;;1.50;;
16099;SDS011;8154;50.830;12.082;2022-08-11T19:59:13;1.33;;;1.23;;
16099;SDS011;8154;50.830;12.082;2022-08-11T20:02:17;1.35;;;1.20;;
16099;SDS011;8154;50.830;12.082;2022-08-11T20:05:21;1.50;;;1.40;;
16099;SDS011;8154;50.830;12.082;2022-08-11T20:08:24;1.40;;;1.30;;
16099;SDS011;8154;50.830;12.082;2022-08-11T20:11:35;1.40;;;1.30;;
16099;SDS011;8154;50.830;12.082;2022-08-11T20:14:42;1.50;;;1.40;;
16099;SDS011;8154;50.830;12.082;2022-08-11T20:17:47;1.30;;;1.20;;
16099;SDS011;8154;50.830;12.082;2022-08-11T20:20:52;1.83;;;1.30;;
16099;SDS011;8154;50.830;12.082;2022-08-11T20:23:59;1.40;;;1.27;;
16099;SDS011;8154;50.830;12.082;2022-08-11T20:27:02;1.50;;;1.40;;
16099;SDS011;8154;50.830;12.082;2022-08-11T20:30:09;1.45;;;1.30;;
16099;SDS011;8154;50.830;12.082;2022-08-11T20:33:13;1.95;;;1.40;;
16099;SDS011;8154;50.830;12.082;2022-08-11T20:36:17;1.70;;;1.60;;
16099;SDS011;8154;50.830;12.082;2022-08-11T20:39:21;1.58;;;1.42;;
16099;SDS011;8154;50.830;12.082;2022-08-11T20:42:26;1.70;;;1.60;;
16099;SDS011;8154;50.830;12.082;2022-08-11T20:45:31;1.77;;;1.60;;
16099;SDS011;8154;50.830;12.082;2022-08-11T20:48:35;1.60;;;1.50;;
16099;SDS011;8154;50.830;12.082;2022-08-11T20:51:40;1.73;;;1.60;;
16099;SDS011;8154;50.830;12.082;2022-08-11T20:54:45;2.20;;;1.60;;
16099;SDS011;8154;50.830;12.082;2022-08-11T20:57:51;1.63;;;1.50;;
16099;SDS011;8154;50.830;12.082;2022-08-11T21:00:56;1.92;;;1.60;;
16099;SDS011;8154;50.830;12.082;2022-08-11T21:03:59;1.70;;;1.60;;
16099;SDS011;8154;50.830;12.082;2022-08-11T21:07:03;1.77;;;1.67;;
16099;SDS011;8154;50.830;12.082;2022-08-11T21:10:07;1.73;;;1.60;;
16099;SDS011;8154;50.830;12.082;2022-08-11T21:13:13;3.10;;;1.80;;
16099;SDS011;8154;50.830;12.082;2022-08-11T21:16:18;1.70;;;1.60;;
16099;SDS011;8154;50.830;12.082;2022-08-11T21:19:30;1.90;;;1.48;;
16099;SDS011;8154;50.830;12.082;2022-08-11T21:22:37;2.03;;;1.70;;
16099;SDS011;8154;50.830;12.082;2022-08-11T21:25:53;1.70;;;1.60;;
16099;SDS011;8154;50.830;12.082;2022-08-11T21:28:58;1.90;;;1.70;;